Flight Track Log - Related Links

Times and Time Zones

All times are in EDT time to prevent confusion due to time zone crossing. See the ASH3770 flight status page for this flight to view local times or setup timezone preferences in your user account.

Time Position Orientation Groundspeed Altitude Reporting Facility
EDT Latitude Longitude Course Direction KTS MPH feet Rate Location/Type
Thu 04:15:55 PM 38.9500 -77.5167 125° Southeast 187 215 1,600  Level Potomac TRACON
Thu 04:17:01 PM 39.0000 -77.5833 314° West 256 295 4,100 2,750 Climbing Potomac TRACON
Thu 04:17:55 PM 39.0500 -77.6500 314° West 285 328 7,100 2,947 Climbing Potomac TRACON
Thu 04:18:55 PM 39.1333 -77.6500 360° North 304 350 9,700 1,400 Climbing Potomac TRACON
Thu 04:19:00 PM 38.7361 -77.0592 120° Southeast  Level FlightAware Approximate
Thu 04:19:55 PM 39.2000 -77.5667 44° Northeast 367 422 9,900  Level Potomac TRACON
Thu 04:20:00 PM 38.6853 -76.9600 125° Southeast  Level FlightAware Approximate
Thu 04:20:55 PM 39.1833 -77.4333 155° Southeast 376 433 10,000  Level Potomac TRACON
Thu 04:21:00 PM 38.6317 -76.8633 125° Southeast  Level FlightAware Approximate
Thu 04:21:00 PM 39.1093 -77.5111 155° Southeast  Level Estimated
Thu 04:21:55 PM 39.1500 -77.3167 110° East 370 426 10,900  Level Potomac TRACON
Thu 04:22:55 PM 39.1167 -77.1833 108° East 388 447 11,000 100 Climbing Potomac TRACON
Thu 04:23:55 PM 39.0667 -77.0500 116° Southeast 392 451 11,100 48 Climbing Potomac TRACON
Thu 04:25:01 PM 38.9833 -76.9500 137° Southeast 375 432 11,100 -29 Level Potomac TRACON
Thu 04:27:21 PM 38.7650 -76.8642 163° South 377 434 11,000 -30 Descending Washington Center
Thu 04:28:19 PM 38.6672 -76.8228 162° South 389 448 11,000  Level Washington Center
Thu 04:29:19 PM 38.5697 -76.7786 160° South 383 441 11,000  Level Washington Center
Thu 04:30:20 PM 38.4744 -76.7319 159° South 377 434 11,000  Level Washington Center
Thu 04:31:21 PM 38.3767 -76.6881 161° South 377 434 11,000  Level Washington Center
Thu 04:32:19 PM 38.2894 -76.6444 159° South 377 434 11,000 -353 Level Washington Center
Thu 04:33:20 PM 38.1939 -76.5983 159° South 372 428 10,300 -492 Descending Washington Center
Thu 04:34:21 PM 38.1006 -76.5575 161° South 362 417 10,000 -151 Descending Washington Center
Thu 04:35:19 PM 38.0050 -76.5114 159° South 362 417 10,000  Level Washington Center
Thu 04:36:21 PM 37.9114 -76.4683 160° South 367 422 10,000  Level Washington Center
Thu 04:37:21 PM 37.8158 -76.4250 160° South 367 422 10,000  Level Washington Center
Thu 04:38:19 PM 37.7181 -76.3819 161° South 367 422 10,000  Level Washington Center
Thu 04:39:19 PM 37.6222 -76.3392 161° South 367 422 10,000 -298 Level Washington Center
Thu 04:40:20 PM 37.5494 -76.3017 158° South 337 388 9,400 -1,180 Descending Washington Center
Thu 04:41:21 PM 37.4789 -76.2722 162° South 296 341 7,600 -1,765 Descending Washington Center
Thu 04:42:19 PM 37.4103 -76.2428 161° South 272 313 5,900 -1,714 Descending Washington Center
Thu 04:43:20 PM 37.3436 -76.2083 158° South 265 305 4,200 -992 Descending Washington Center
Thu 04:44:20 PM 37.2792 -76.1792 160° South 259 298 3,900 -1,050 Descending Washington Center
Thu 04:45:20 PM 37.2061 -76.1472 161° South 259 298 2,100 -942 Descending Washington Center
Thu 04:46:21 PM 37.1417 -76.1183 160° South 259 298 2,000 -45 Descending Washington Center
Thu 04:47:33 PM 37.0583 -76.0967 168° South 232 267 2,000 -180 Level Washington Center
Thu 04:48:34 PM 36.9978 -76.1042 186° South 204 235 1,600 -393 Descending Washington Center

Login

Don't have an account? Register now (free) for customized features, flight alerts, and more!